createdAt,value
2024-03-04T00:00:13.657Z,998.71
2024-03-04T00:00:36.917Z,998.71
2024-03-04T00:01:09.137Z,998.71
2024-03-04T00:01:45.350Z,998.71
2024-03-04T00:02:10.399Z,998.44
2024-03-04T00:03:17.241Z,998.61
2024-03-04T00:03:39.777Z,998.51
2024-03-04T00:04:06.809Z,998.51
2024-03-04T00:05:11.328Z,998.51
2024-03-04T00:05:44.018Z,998.51
2024-03-04T00:06:14.388Z,998.51
2024-03-04T00:06:36.889Z,998.61
2024-03-04T00:07:02.689Z,998.61
2024-03-04T00:07:33.450Z,998.61
2024-03-04T00:08:05.200Z,998.61
2024-03-04T00:08:41.317Z,998.61
2024-03-04T00:09:13.696Z,998.61
2024-03-04T00:09:43.386Z,998.61
2024-03-04T00:10:19.239Z,998.61
2024-03-04T00:10:48.257Z,998.71
2024-03-04T00:11:10.800Z,998.71
2024-03-04T00:11:34.972Z,998.61
2024-03-04T00:12:05.162Z,998.61
2024-03-04T00:12:42.022Z,998.51
2024-03-04T00:13:03.475Z,998.51
2024-03-04T00:13:41.180Z,998.51
2024-03-04T00:14:12.674Z,998.81
2024-03-04T00:14:35.848Z,998.71
2024-03-04T00:15:02.419Z,998.71
2024-03-04T00:15:34.552Z,998.71
2024-03-04T00:16:06.867Z,998.71
2024-03-04T00:16:36.955Z,998.71
2024-03-04T00:17:10.488Z,998.71
2024-03-04T00:17:42.066Z,998.71
2024-03-04T00:18:13.552Z,998.71
2024-03-04T00:18:35.914Z,998.81
2024-03-04T00:18:58.292Z,998.81
2024-03-04T00:19:32.841Z,998.81
2024-03-04T00:20:09.153Z,998.92
2024-03-04T00:20:36.868Z,998.92
2024-03-04T00:21:08.771Z,998.71
2024-03-04T00:21:45.034Z,998.71
2024-03-04T00:22:12.784Z,999.02
2024-03-04T00:22:45.929Z,998.61
2024-03-04T00:23:17.319Z,998.61
2024-03-04T00:23:39.929Z,998.81
2024-03-04T00:24:06.229Z,998.81
2024-03-04T00:24:37.197Z,998.81
2024-03-04T00:25:09.131Z,998.81
2024-03-04T00:25:45.971Z,998.92
2024-03-04T00:26:07.166Z,998.92
2024-03-04T00:26:39.638Z,998.81
2024-03-04T00:27:16.986Z,998.81
2024-03-04T00:28:03.110Z,998.71
2024-03-04T00:28:36.930Z,998.71
2024-03-04T00:29:13.432Z,998.61
2024-03-04T00:29:48.808Z,998.61
2024-03-04T00:30:12.890Z,998.81
2024-03-04T00:30:36.266Z,998.81
2024-03-04T00:30:58.546Z,998.81
2024-03-04T00:31:34.159Z,998.81
2024-03-04T00:32:36.879Z,998.81
2024-03-04T00:33:08.893Z,998.61
2024-03-04T00:33:40.809Z,998.61
2024-03-04T00:34:12.861Z,998.71
2024-03-04T00:34:36.076Z,998.71
2024-03-04T00:34:58.087Z,998.71
2024-03-04T00:35:34.204Z,998.71
2024-03-04T00:36:05.202Z,998.61
2024-03-04T00:36:36.751Z,998.61
2024-03-04T00:37:13.006Z,998.92
2024-03-04T00:37:42.208Z,998.92
2024-03-04T00:38:12.852Z,998.71
2024-03-04T00:38:37.422Z,998.61
2024-03-04T00:38:59.852Z,998.61
2024-03-04T00:39:34.114Z,998.61
2024-03-04T00:40:04.928Z,998.71
2024-03-04T00:40:43.225Z,998.71
2024-03-04T00:41:10.035Z,998.61
2024-03-04T00:41:45.115Z,998.61
2024-03-04T00:42:12.828Z,998.61
2024-03-04T00:42:35.645Z,998.81
2024-03-04T00:43:02.397Z,998.81
2024-03-04T00:43:34.166Z,998.81
2024-03-04T00:44:04.566Z,998.61
2024-03-04T00:44:45.190Z,998.61
2024-03-04T00:45:25.082Z,998.81
2024-03-04T00:45:47.950Z,998.92
2024-03-04T00:46:10.441Z,998.92
2024-03-04T00:46:39.989Z,998.71
2024-03-04T00:47:16.952Z,998.71
2024-03-04T00:47:46.201Z,998.71
2024-03-04T00:48:03.211Z,998.71
2024-03-04T00:48:36.968Z,998.71
2024-03-04T00:49:08.994Z,998.71
2024-03-04T00:49:40.772Z,998.71
2024-03-04T00:50:17.629Z,998.81
2024-03-04T00:50:38.114Z,998.81
2024-03-04T00:51:00.703Z,998.81
2024-03-04T00:51:37.175Z,998.81
2024-03-04T00:52:36.942Z,999.02
2024-03-04T00:53:09.249Z,998.61
2024-03-04T00:53:42.848Z,998.61
2024-03-04T00:54:12.642Z,998.81
2024-03-04T00:54:37.226Z,998.61
2024-03-04T00:54:58.301Z,998.61
2024-03-04T00:55:34.278Z,998.61
2024-03-04T00:56:06.002Z,998.71
2024-03-04T00:56:36.644Z,998.71
2024-03-04T00:57:13.297Z,998.61
2024-03-04T00:57:46.181Z,998.61
2024-03-04T00:58:12.931Z,998.92
2024-03-04T00:58:35.447Z,998.51
2024-03-04T00:59:02.227Z,998.51
2024-03-04T00:59:32.684Z,998.51
2024-03-04T01:00:05.277Z,998.92
2024-03-04T01:00:36.944Z,998.92
2024-03-04T01:01:09.021Z,998.71
2024-03-04T01:01:40.648Z,998.71
2024-03-04T01:02:14.103Z,998.81
2024-03-04T01:02:35.872Z,998.81
2024-03-04T01:02:58.420Z,998.81
2024-03-04T01:03:32.913Z,998.81
2024-03-04T01:04:36.958Z,998.81
2024-03-04T01:05:11.129Z,998.92
2024-03-04T01:05:40.229Z,998.92
2024-03-04T01:06:17.932Z,998.71
2024-03-04T01:06:37.890Z,998.81
2024-03-04T01:06:59.751Z,998.81
2024-03-04T01:07:34.187Z,998.81
2024-03-04T01:08:04.972Z,999.02
2024-03-04T01:08:36.651Z,999.02
2024-03-04T01:09:10.103Z,998.92
2024-03-04T01:09:40.840Z,998.92
2024-03-04T01:10:37.184Z,998.71
2024-03-04T01:10:59.425Z,998.71
2024-03-04T01:11:38.376Z,998.71
2024-03-04T01:12:06.085Z,998.92
2024-03-04T01:12:36.449Z,998.92
2024-03-04T01:13:11.258Z,999.12
2024-03-04T01:13:41.062Z,999.12
2024-03-04T01:14:13.884Z,999.02
2024-03-04T01:14:36.736Z,999.02
2024-03-04T01:15:00.826Z,999.02
2024-03-04T01:15:34.257Z,999.02
2024-03-04T01:16:05.209Z,998.92
2024-03-04T01:16:38.583Z,998.92
2024-03-04T01:17:10.401Z,999.02
2024-03-04T01:17:49.578Z,998.92
2024-03-04T01:18:13.247Z,998.92
2024-03-04T01:18:35.959Z,999.02
2024-03-04T01:19:03.303Z,999.02
2024-03-04T01:19:33.681Z,999.02
2024-03-04T01:20:04.741Z,999.02
2024-03-04T01:20:38.902Z,998.92
2024-03-04T01:21:09.241Z,998.92
2024-03-04T01:21:43.419Z,998.92
2024-03-04T01:22:14.721Z,998.92
2024-03-04T01:22:36.167Z,999.12
2024-03-04T01:22:59.042Z,999.12
2024-03-04T01:23:33.113Z,999.12
2024-03-04T01:24:05.989Z,999.02
2024-03-04T01:24:37.959Z,999.02
2024-03-04T01:25:09.494Z,999.12
2024-03-04T01:25:43.498Z,998.92
2024-03-04T01:26:14.990Z,998.92
2024-03-04T01:26:37.817Z,998.92
2024-03-04T01:26:58.921Z,998.92
2024-03-04T01:27:36.884Z,999.32
2024-03-04T01:28:05.743Z,999.32
2024-03-04T01:28:37.361Z,999.32
2024-03-04T01:29:15.025Z,999.22
2024-03-04T01:29:46.607Z,999.22
2024-03-04T01:30:13.589Z,999.22
2024-03-04T01:30:35.444Z,998.92
2024-03-04T01:30:58.246Z,998.92
2024-03-04T01:31:34.274Z,998.92
2024-03-04T01:32:04.726Z,999.12
2024-03-04T01:32:37.227Z,999.12
2024-03-04T01:33:09.131Z,999.02
2024-03-04T01:33:41.119Z,999.02
2024-03-04T01:34:17.744Z,999.22
2024-03-04T01:34:40.681Z,999.42
2024-03-04T01:34:58.765Z,999.42
2024-03-04T01:35:32.977Z,999.42
2024-03-04T01:36:05.239Z,999.12
2024-03-04T01:36:37.616Z,999.12
2024-03-04T01:37:13.294Z,999.32
2024-03-04T01:37:41.904Z,999.32
2024-03-04T01:38:12.876Z,999.22
2024-03-04T01:38:36.018Z,999.22
2024-03-04T01:38:58.634Z,999.22
2024-03-04T01:39:34.077Z,999.22
2024-03-04T01:40:06.688Z,999.42
2024-03-04T01:40:37.472Z,999.42
2024-03-04T01:41:09.115Z,999.22
2024-03-04T01:41:44.501Z,999.22
2024-03-04T01:42:11.501Z,999.22
2024-03-04T01:42:39.932Z,999.22
2024-03-04T01:43:16.796Z,999.22
2024-03-04T01:43:41.688Z,999.42
2024-03-04T01:44:03.613Z,999.42
2024-03-04T01:44:41.111Z,999.42
2024-03-04T01:45:09.234Z,999.32
2024-03-04T01:45:40.695Z,999.32
2024-03-04T01:46:17.017Z,999.42
2024-03-04T01:46:40.004Z,999.32
2024-03-04T01:46:58.133Z,999.32
2024-03-04T01:47:37.108Z,999.32
2024-03-04T01:48:04.664Z,999.52
2024-03-04T01:48:36.715Z,999.52
2024-03-04T01:49:10.114Z,999.22
2024-03-04T01:49:40.875Z,999.22
2024-03-04T01:50:12.784Z,999.22
2024-03-04T01:50:42.412Z,999.42
2024-03-04T01:51:01.348Z,999.42
2024-03-04T01:51:38.013Z,999.42
2024-03-04T01:52:08.222Z,999.42
2024-03-04T01:52:36.845Z,999.42
2024-03-04T01:53:09.196Z,999.32
2024-03-04T01:53:40.623Z,999.32
2024-03-04T01:54:12.818Z,999.52
2024-03-04T01:54:35.638Z,999.52
2024-03-04T01:54:58.058Z,999.52
2024-03-04T01:55:32.816Z,999.52
2024-03-04T01:56:05.299Z,999.42
2024-03-04T01:56:40.982Z,999.42
2024-03-04T01:57:08.754Z,999.42
2024-03-04T01:57:46.014Z,999.42
2024-03-04T01:58:08.419Z,999.52
2024-03-04T01:58:40.679Z,999.42
2024-03-04T01:59:23.758Z,999.42
2024-03-04T01:59:40.590Z,999.42
2024-03-04T02:00:04.122Z,999.42
2024-03-04T02:00:38.043Z,999.42
2024-03-04T02:01:09.141Z,999.52
2024-03-04T02:01:41.131Z,999.52
2024-03-04T02:02:17.281Z,999.42
2024-03-04T02:02:37.024Z,999.42
2024-03-04T02:03:02.598Z,999.42
2024-03-04T02:03:33.070Z,999.42
2024-03-04T02:04:04.708Z,999.73
2024-03-04T02:04:38.469Z,999.73
2024-03-04T02:05:09.079Z,999.73
2024-03-04T02:05:40.736Z,999.73
2024-03-04T02:06:12.970Z,999.73
2024-03-04T02:06:35.623Z,999.63
2024-03-04T02:06:59.401Z,999.63
2024-03-04T02:07:37.336Z,999.63
2024-03-04T02:08:11.942Z,999.73
2024-03-04T02:08:34.248Z,999.73
2024-03-04T02:09:10.385Z,999.83
2024-03-04T02:09:40.750Z,999.83
2024-03-04T02:10:12.792Z,999.93
2024-03-04T02:10:37.211Z,999.52
2024-03-04T02:11:00.841Z,999.52
2024-03-04T02:11:34.008Z,999.52
2024-03-04T02:12:04.813Z,999.73
2024-03-04T02:12:36.874Z,999.73
2024-03-04T02:13:08.905Z,999.83
2024-03-04T02:13:40.942Z,999.83
2024-03-04T02:14:12.842Z,999.83
2024-03-04T02:14:35.911Z,999.83
2024-03-04T02:14:57.979Z,999.83
2024-03-04T02:15:32.896Z,999.83
2024-03-04T02:16:04.988Z,999.83
2024-03-04T02:16:37.021Z,999.83
2024-03-04T02:17:10.306Z,999.83
2024-03-04T02:18:12.737Z,999.93
2024-03-04T02:18:39.832Z,1000.03
2024-03-04T02:18:57.952Z,1000.03
2024-03-04T02:19:34.208Z,1000.03
2024-03-04T02:20:04.704Z,999.83
2024-03-04T02:20:36.906Z,999.83
2024-03-04T02:21:08.832Z,1000.03
2024-03-04T02:21:40.802Z,1000.03
2024-03-04T02:22:13.007Z,999.73
2024-03-04T02:22:35.810Z,999.83
2024-03-04T02:22:59.188Z,999.83
2024-03-04T02:23:32.520Z,999.83
2024-03-04T02:24:04.625Z,999.93
2024-03-04T02:24:37.093Z,999.93
2024-03-04T02:25:13.372Z,999.93
2024-03-04T02:25:40.852Z,999.93
2024-03-04T02:26:12.740Z,999.83
2024-03-04T02:26:38.353Z,1000.13
2024-03-04T02:27:00.593Z,1000.13
2024-03-04T02:27:37.003Z,1000.13
2024-03-04T02:28:06.039Z,1000.03
2024-03-04T02:28:36.973Z,1000.03
2024-03-04T02:29:10.110Z,1000.13
2024-03-04T02:29:40.734Z,1000.13
2024-03-04T02:30:12.792Z,1000.13
2024-03-04T02:30:37.945Z,1000.13
2024-03-04T02:30:58.939Z,1000.13
2024-03-04T02:31:37.177Z,1000.13
2024-03-04T02:32:04.734Z,999.93
2024-03-04T02:32:36.741Z,999.93
2024-03-04T02:33:08.977Z,999.93
2024-03-04T02:33:40.827Z,999.93
2024-03-04T02:34:12.488Z,1000.03
2024-03-04T02:34:35.600Z,1000.13
2024-03-04T02:35:02.188Z,1000.13
2024-03-04T02:35:34.110Z,1000.13
2024-03-04T02:35:58.624Z,1000.13
2024-03-04T02:36:38.513Z,1000.13
2024-03-04T02:37:10.165Z,1000.13
2024-03-04T02:37:41.619Z,1000.13
2024-03-04T02:38:17.524Z,1000.34
2024-03-04T02:38:35.752Z,1000.34
2024-03-04T02:39:01.314Z,1000.34
2024-03-04T02:39:34.504Z,1000.24
2024-03-04T02:40:04.994Z,1000.24
2024-03-04T02:40:42.351Z,1000.24
2024-03-04T02:41:10.406Z,1000.03
2024-03-04T02:41:45.290Z,1000.03
2024-03-04T02:42:14.623Z,1000.24
2024-03-04T02:42:36.029Z,1000.03
2024-03-04T02:43:00.431Z,1000.03
2024-03-04T02:43:34.315Z,1000.03
2024-03-04T02:44:05.308Z,1000.24
2024-03-04T02:44:37.119Z,1000.24
2024-03-04T02:45:09.073Z,1000.24
2024-03-04T02:45:40.937Z,1000.24
2024-03-04T02:46:16.709Z,1000.34
2024-03-04T02:46:37.552Z,1000.24
2024-03-04T02:46:59.745Z,1000.24
2024-03-04T02:47:37.571Z,1000.24
2024-03-04T02:48:09.466Z,1000.24
2024-03-04T02:48:30.950Z,1000.24
2024-03-04T02:49:08.749Z,1000.24
2024-03-04T02:49:40.931Z,1000.24
2024-03-04T02:50:12.660Z,1000.24
2024-03-04T02:50:36.119Z,1000.24
2024-03-04T02:50:58.221Z,1000.24
2024-03-04T02:51:34.062Z,1000.24
2024-03-04T02:52:06.028Z,1000.13
2024-03-04T02:52:36.995Z,1000.13
2024-03-04T02:53:09.024Z,1000.44
2024-03-04T02:53:40.884Z,1000.44
2024-03-04T02:54:12.944Z,1000.24
2024-03-04T02:54:36.546Z,1000.24
2024-03-04T02:54:58.128Z,1000.24
2024-03-04T02:55:33.964Z,1000.24
2024-03-04T02:56:05.163Z,1000.34
2024-03-04T02:56:36.529Z,1000.34
2024-03-04T02:57:10.152Z,1000.54
2024-03-04T02:57:41.938Z,1000.54
2024-03-04T02:58:12.971Z,1000.44
2024-03-04T02:58:35.347Z,1000.24
2024-03-04T02:58:57.849Z,1000.24
2024-03-04T02:59:32.737Z,1000.24
2024-03-04T03:00:04.845Z,1000.44
2024-03-04T03:00:45.368Z,1000.44
2024-03-04T03:01:47.607Z,1000.34
2024-03-04T03:02:17.873Z,1000.34
2024-03-04T03:02:39.760Z,1000.44
2024-03-04T03:03:17.504Z,1000.44
2024-03-04T03:03:41.191Z,1000.34
2024-03-04T03:04:03.714Z,1000.34
2024-03-04T03:04:36.852Z,1000.34
2024-03-04T03:05:08.739Z,1000.54
2024-03-04T03:05:40.538Z,1000.54
2024-03-04T03:06:12.683Z,1000.54
2024-03-04T03:06:35.630Z,1000.44
2024-03-04T03:06:57.965Z,1000.44
2024-03-04T03:07:33.219Z,1000.44
2024-03-04T03:08:05.924Z,1000.34
2024-03-04T03:08:37.079Z,1000.34
2024-03-04T03:09:14.111Z,1000.54
2024-03-04T03:09:46.108Z,1000.54
2024-03-04T03:10:07.310Z,1000.61
2024-03-04T03:10:40.220Z,1000.71
2024-03-04T03:11:17.232Z,1000.71
2024-03-04T03:11:39.749Z,1000.81
2024-03-04T03:12:02.124Z,1000.81
2024-03-04T03:12:37.167Z,1000.81
2024-03-04T03:13:11.319Z,1000.71
2024-03-04T03:13:48.516Z,1000.71
2024-03-04T03:14:15.498Z,1000.71
2024-03-04T03:14:38.242Z,1000.54
2024-03-04T03:15:01.827Z,1000.54
2024-03-04T03:15:33.114Z,1000.54
2024-03-04T03:16:05.564Z,1000.81
2024-03-04T03:16:36.823Z,1000.81
2024-03-04T03:17:14.832Z,1000.61
2024-03-04T03:17:42.450Z,1000.71
2024-03-04T03:18:15.112Z,1000.71
2024-03-04T03:18:38.917Z,1001.01
2024-03-04T03:19:01.229Z,1001.01
2024-03-04T03:19:38.537Z,1001.01
2024-03-04T03:20:05.093Z,1000.71
2024-03-04T03:20:37.326Z,1000.71
2024-03-04T03:21:09.346Z,1000.71
2024-03-04T03:21:45.297Z,1000.71
2024-03-04T03:22:15.573Z,1000.91
2024-03-04T03:22:36.913Z,1000.81
2024-03-04T03:22:59.858Z,1000.81
2024-03-04T03:23:32.962Z,1000.81
2024-03-04T03:24:09.125Z,1000.61
2024-03-04T03:24:36.773Z,1000.61
2024-03-04T03:25:10.424Z,1000.71
2024-03-04T03:25:44.435Z,1000.61
2024-03-04T03:26:13.028Z,1000.61
2024-03-04T03:26:35.665Z,1000.91
2024-03-04T03:26:58.004Z,1000.91
2024-03-04T03:27:33.003Z,1000.91
2024-03-04T03:28:07.335Z,1000.61
2024-03-04T03:28:44.855Z,1000.54
2024-03-04T03:29:07.354Z,1000.54
2024-03-04T03:29:43.616Z,1000.71
2024-03-04T03:30:12.984Z,1000.71
2024-03-04T03:30:40.318Z,1000.91
2024-03-04T03:30:58.974Z,1000.91
2024-03-04T03:31:34.447Z,1000.91
2024-03-04T03:32:04.825Z,1000.91
2024-03-04T03:32:36.957Z,1000.91
2024-03-04T03:33:10.583Z,1000.91
2024-03-04T03:33:40.997Z,1000.91
2024-03-04T03:34:14.468Z,1000.91
2024-03-04T03:34:40.111Z,1000.91
2024-03-04T03:34:59.455Z,1000.91
2024-03-04T03:35:33.725Z,1000.91
2024-03-04T03:36:09.127Z,1001.01
2024-03-04T03:36:37.029Z,1001.01
2024-03-04T03:37:13.324Z,1001.01
2024-03-04T03:37:47.262Z,1000.81
2024-03-04T03:38:12.857Z,1000.81
2024-03-04T03:38:35.473Z,1001.12
2024-03-04T03:39:01.542Z,1001.12
2024-03-04T03:40:05.959Z,1001.01
2024-03-04T03:40:40.775Z,1001.01
2024-03-04T03:41:03.436Z,1001.01
2024-03-04T03:41:40.843Z,1001.01
2024-03-04T03:42:12.766Z,1000.81
2024-03-04T03:42:37.224Z,1001.01
2024-03-04T03:42:59.141Z,1001.01
2024-03-04T03:43:32.776Z,1001.01
2024-03-04T03:44:04.853Z,1000.91
2024-03-04T03:44:37.917Z,1000.91
2024-03-04T03:45:09.069Z,1001.12
2024-03-04T03:45:42.194Z,1001.12
2024-03-04T03:46:12.952Z,1001.01
2024-03-04T03:46:37.603Z,1001.12
2024-03-04T03:47:00.910Z,1001.12
2024-03-04T03:47:33.023Z,1001.12
2024-03-04T03:48:04.863Z,1001.12
2024-03-04T03:48:36.753Z,1001.12
2024-03-04T03:49:08.543Z,1001.12
2024-03-04T03:49:40.656Z,1001.12
2024-03-04T03:50:12.730Z,1001.22
2024-03-04T03:50:40.301Z,1001.22
2024-03-04T03:51:02.627Z,1001.22
2024-03-04T03:51:34.104Z,1001.22
2024-03-04T03:52:04.996Z,1001.22
2024-03-04T03:52:36.879Z,1001.22
2024-03-04T03:53:08.671Z,1001.22
2024-03-04T03:53:40.883Z,1001.22
2024-03-04T03:54:07.994Z,1001.22
2024-03-04T03:54:40.037Z,1001.32
2024-03-04T03:55:17.271Z,1001.32
2024-03-04T03:55:39.866Z,1001.22
2024-03-04T03:56:03.294Z,1001.22
2024-03-04T03:56:38.543Z,1001.22
2024-03-04T03:57:11.118Z,1001.22
2024-03-04T03:57:51.613Z,1001.22
2024-03-04T03:58:13.524Z,1001.12
2024-03-04T03:58:35.833Z,1001.42
2024-03-04T03:59:00.683Z,1001.42
2024-03-04T03:59:32.967Z,1001.42
2024-03-04T04:00:38.802Z,1001.22
2024-03-04T04:01:09.775Z,1001.42
2024-03-04T04:01:42.373Z,1001.42
2024-03-04T04:02:12.919Z,1001.52
2024-03-04T04:02:36.807Z,1001.32
2024-03-04T04:02:58.009Z,1001.32
2024-03-04T04:03:35.696Z,1001.32
2024-03-04T04:04:08.344Z,1001.32
2024-03-04T04:04:37.218Z,1001.32
2024-03-04T04:05:10.214Z,1001.62
2024-03-04T04:05:40.736Z,1001.62
2024-03-04T04:06:12.810Z,1001.32
2024-03-04T04:06:35.921Z,1001.42
2024-03-04T04:06:58.780Z,1001.42
2024-03-04T04:07:33.185Z,1001.42
2024-03-04T04:08:06.117Z,1001.52
2024-03-04T04:08:38.603Z,1001.52
2024-03-04T04:09:10.468Z,1001.42
2024-03-04T04:09:42.532Z,1001.42
2024-03-04T04:10:13.124Z,1001.52
2024-03-04T04:10:40.212Z,1001.42
2024-03-04T04:10:58.334Z,1001.42
2024-03-04T04:11:33.842Z,1001.42
2024-03-04T04:12:04.797Z,1001.42
2024-03-04T04:13:09.022Z,1001.42
2024-03-04T04:13:41.078Z,1001.42
2024-03-04T04:14:18.515Z,1001.42
2024-03-04T04:14:37.225Z,1001.62
2024-03-04T04:14:59.749Z,1001.62
2024-03-04T04:16:05.286Z,1001.32
2024-03-04T04:16:37.401Z,1001.32
2024-03-04T04:17:13.297Z,1001.42
2024-03-04T04:17:42.407Z,1001.42
2024-03-04T04:18:13.919Z,1001.62
2024-03-04T04:18:36.621Z,1001.62
2024-03-04T04:19:01.422Z,1001.62
2024-03-04T04:19:34.298Z,1001.62
2024-03-04T04:20:05.415Z,1001.42
2024-03-04T04:21:07.532Z,1001.62
2024-03-04T04:21:41.073Z,1001.62
2024-03-04T04:22:14.377Z,1001.52
2024-03-04T04:22:37.291Z,1001.52
2024-03-04T04:22:59.502Z,1001.52
2024-03-04T04:23:33.136Z,1001.52
2024-03-04T04:24:06.127Z,1001.52
2024-03-04T04:24:37.283Z,1001.52
2024-03-04T04:25:09.249Z,1001.42
2024-03-04T04:25:42.389Z,1001.83
2024-03-04T04:26:13.571Z,1001.83
2024-03-04T04:26:37.821Z,1001.52
2024-03-04T04:26:59.013Z,1001.52
2024-03-04T04:27:33.788Z,1001.52
2024-03-04T04:28:09.219Z,1001.42
2024-03-04T04:28:38.045Z,1001.42
2024-03-04T04:29:10.483Z,1001.62
2024-03-04T04:29:41.020Z,1001.62
2024-03-04T04:30:18.062Z,1001.73
2024-03-04T04:30:51.892Z,1001.73
2024-03-04T04:31:37.217Z,1001.73
2024-03-04T04:32:05.040Z,1001.62
2024-03-04T04:32:42.315Z,1001.62
2024-03-04T04:33:03.602Z,1001.62
2024-03-04T04:33:40.688Z,1001.62
2024-03-04T04:34:17.059Z,1001.62
2024-03-04T04:34:41.296Z,1001.73
2024-03-04T04:34:58.355Z,1001.73
2024-03-04T04:35:33.904Z,1001.73
2024-03-04T04:36:09.125Z,1001.52
2024-03-04T04:36:37.118Z,1001.52
2024-03-04T04:37:13.292Z,1001.93
2024-03-04T04:37:41.950Z,1001.93
2024-03-04T04:38:12.732Z,1001.73
2024-03-04T04:38:36.065Z,1001.73
2024-03-04T04:38:58.366Z,1001.73
2024-03-04T04:39:32.775Z,1001.73
2024-03-04T04:40:10.877Z,1001.52
2024-03-04T04:40:41.190Z,1001.52
2024-03-04T04:41:10.769Z,1001.83
2024-03-04T04:41:40.648Z,1001.83
2024-03-04T04:42:14.778Z,1001.73
2024-03-04T04:42:35.213Z,1001.73
2024-03-04T04:42:58.931Z,1001.73
2024-03-04T04:43:32.979Z,1001.73
2024-03-04T04:44:04.780Z,1001.62
2024-03-04T04:44:38.009Z,1001.62
2024-03-04T04:45:09.048Z,1001.73
2024-03-04T04:45:40.712Z,1001.73
2024-03-04T04:46:14.051Z,1001.83
2024-03-04T04:46:42.055Z,1001.73
2024-03-04T04:46:59.093Z,1001.73
2024-03-04T04:47:34.083Z,1001.73
2024-03-04T04:48:04.580Z,1001.83
2024-03-04T04:48:40.920Z,1001.83
2024-03-04T04:49:08.545Z,1001.73
2024-03-04T04:49:40.696Z,1001.73
2024-03-04T04:50:12.719Z,1001.73
2024-03-04T04:50:36.112Z,1001.93
2024-03-04T04:50:57.955Z,1001.93
2024-03-04T04:51:34.326Z,1001.93
2024-03-04T04:52:04.820Z,1001.83
2024-03-04T04:52:42.050Z,1001.83
2024-03-04T04:53:08.738Z,1002.13
2024-03-04T04:53:41.002Z,1002.13
2024-03-04T04:54:14.004Z,1001.93
2024-03-04T04:54:35.592Z,1001.83
2024-03-04T04:54:58.050Z,1001.83
2024-03-04T04:55:32.685Z,1001.83
2024-03-04T04:56:05.936Z,1001.93
2024-03-04T04:56:36.740Z,1001.93
2024-03-04T04:57:13.011Z,1001.93
2024-03-04T04:57:42.100Z,1001.93
2024-03-04T04:58:12.678Z,1002.03
2024-03-04T04:58:36.888Z,1002.03
2024-03-04T04:58:58.022Z,1002.03
2024-03-04T04:59:32.734Z,1002.03
2024-03-04T05:00:11.166Z,1001.83
2024-03-04T05:00:41.411Z,1001.83
2024-03-04T05:01:08.696Z,1001.93
2024-03-04T05:01:41.084Z,1001.93
2024-03-04T05:02:16.977Z,1002.03
2024-03-04T05:02:35.790Z,1001.93
2024-03-04T05:02:57.941Z,1001.93
2024-03-04T05:03:48.157Z,1001.93
2024-03-04T05:04:30.761Z,1001.93
2024-03-04T05:04:54.300Z,1002.03
2024-03-04T05:05:08.754Z,1002.03
2024-03-04T05:05:40.788Z,1002.03
2024-03-04T05:06:10.836Z,1001.83
2024-03-04T05:06:44.998Z,1001.93
2024-03-04T05:07:21.280Z,1001.93
2024-03-04T05:07:39.888Z,1002.13
2024-03-04T05:08:02.145Z,1002.13
2024-03-04T05:08:36.762Z,1002.13
2024-03-04T05:09:04.280Z,1002.03
2024-03-04T05:09:41.024Z,1002.03
2024-03-04T05:10:15.141Z,1002.03
2024-03-04T05:10:39.126Z,1002.23
2024-03-04T05:11:01.081Z,1002.23
2024-03-04T05:11:34.350Z,1002.23
2024-03-04T05:12:05.174Z,1002.23
2024-03-04T05:12:38.433Z,1002.23
2024-03-04T05:13:10.212Z,1002.23
2024-03-04T05:13:42.726Z,1002.23
2024-03-04T05:14:14.211Z,1002.23
2024-03-04T05:14:39.889Z,1002.23
2024-03-04T05:14:58.143Z,1002.23
2024-03-04T05:15:33.306Z,1002.23
2024-03-04T05:16:05.133Z,1002.34
2024-03-04T05:16:47.804Z,1002.23
2024-03-04T05:17:06.196Z,1002.23
2024-03-04T05:17:34.924Z,1002.23
2024-03-04T05:18:13.352Z,1002.13
2024-03-04T05:18:35.910Z,1002.44
2024-03-04T05:19:05.081Z,1002.44
2024-03-04T05:19:27.148Z,1002.44
2024-03-04T05:20:06.249Z,1002.54
2024-03-04T05:20:50.333Z,1002.54
2024-03-04T05:21:08.774Z,1002.34
2024-03-04T05:21:41.704Z,1002.34
2024-03-04T05:22:13.019Z,1002.64
2024-03-04T05:22:36.492Z,1002.34
2024-03-04T05:23:00.037Z,1002.34
2024-03-04T05:23:32.727Z,1002.34
2024-03-04T05:24:04.772Z,1002.54
2024-03-04T05:24:36.657Z,1002.54
2024-03-04T05:25:09.084Z,1002.54
2024-03-04T05:25:40.835Z,1002.54
2024-03-04T05:26:12.746Z,1002.71
2024-03-04T05:26:40.954Z,1002.54
2024-03-04T05:26:59.395Z,1002.54
2024-03-04T05:27:34.026Z,1002.54
2024-03-04T05:28:05.132Z,1002.64
2024-03-04T05:28:36.800Z,1002.64
2024-03-04T05:29:08.616Z,1002.54
2024-03-04T05:29:40.825Z,1002.54
2024-03-04T05:30:12.792Z,1002.64
2024-03-04T05:30:35.532Z,1002.54
2024-03-04T05:30:57.703Z,1002.54
2024-03-04T05:31:37.066Z,1002.54
2024-03-04T05:32:05.933Z,1002.81
2024-03-04T05:32:36.585Z,1002.81
2024-03-04T05:33:13.159Z,1002.81
2024-03-04T05:33:40.549Z,1002.81
2024-03-04T05:34:18.026Z,1002.81
2024-03-04T05:34:35.818Z,1002.81
2024-03-04T05:34:58.138Z,1002.81
2024-03-04T05:35:32.527Z,1002.81
2024-03-04T05:36:06.036Z,1002.81
2024-03-04T05:36:37.915Z,1002.81
2024-03-04T05:37:08.735Z,1002.91
2024-03-04T05:37:45.018Z,1002.91
2024-03-04T05:38:12.741Z,1002.81
2024-03-04T05:38:38.359Z,1002.91
2024-03-04T05:39:16.994Z,1002.91
2024-03-04T05:39:39.630Z,1002.91
2024-03-04T05:40:03.886Z,1002.91
2024-03-04T05:40:36.802Z,1002.91
2024-03-04T05:41:09.148Z,1002.91
2024-03-04T05:41:46.205Z,1002.91
2024-03-04T05:42:12.903Z,1003.01
2024-03-04T05:42:35.726Z,1003.11
2024-03-04T05:42:59.445Z,1003.11
2024-03-04T05:43:34.093Z,1003.11
2024-03-04T05:44:05.256Z,1003.22
2024-03-04T05:44:41.345Z,1003.22
2024-03-04T05:45:10.090Z,1003.11
2024-03-04T05:45:40.992Z,1003.11
2024-03-04T05:46:12.769Z,1003.11
2024-03-04T05:46:35.549Z,1003.11
2024-03-04T05:46:59.274Z,1003.11
2024-03-04T05:47:35.278Z,1003.22
2024-03-04T05:48:05.320Z,1003.22
2024-03-04T05:48:37.026Z,1003.22
2024-03-04T05:49:08.913Z,1003.11
2024-03-04T05:49:45.412Z,1003.11
2024-03-04T05:50:14.391Z,1003.01
2024-03-04T05:50:36.933Z,1003.11
2024-03-04T05:50:59.440Z,1003.11
2024-03-04T05:51:37.089Z,1003.11
2024-03-04T05:52:04.928Z,1003.22
2024-03-04T05:52:37.032Z,1003.22
2024-03-04T05:53:08.741Z,1003.22
2024-03-04T05:53:40.809Z,1003.22
2024-03-04T05:54:14.373Z,1003.22
2024-03-04T05:54:36.906Z,1003.11
2024-03-04T05:55:41.025Z,1003.01
2024-03-04T05:56:08.353Z,1003.01
2024-03-04T05:56:36.918Z,1003.01
2024-03-04T05:57:10.487Z,1003.32
2024-03-04T05:57:46.288Z,1003.32
2024-03-04T05:58:13.253Z,1003.32
2024-03-04T05:58:36.262Z,1003.22
2024-03-04T05:58:58.930Z,1003.22
2024-03-04T05:59:33.153Z,1003.22
2024-03-04T06:00:07.642Z,1003.11
2024-03-04T06:00:39.325Z,1003.22
2024-03-04T06:01:13.308Z,1003.22
2024-03-04T06:01:35.625Z,1003.22
2024-03-04T06:02:14.577Z,1003.01
2024-03-04T06:02:35.541Z,1003.22
2024-03-04T06:02:58.206Z,1003.22
2024-03-04T06:03:34.026Z,1003.22
2024-03-04T06:04:38.068Z,1003.22
2024-03-04T06:05:08.725Z,1002.91
2024-03-04T06:05:40.718Z,1002.91
2024-03-04T06:06:12.491Z,1003.11
2024-03-04T06:06:35.093Z,1003.01
2024-03-04T06:06:57.523Z,1003.01
2024-03-04T06:07:32.793Z,1003.01
2024-03-04T06:08:04.822Z,1003.11
2024-03-04T06:08:36.633Z,1003.11
2024-03-04T06:09:08.508Z,1003.11
2024-03-04T06:09:44.926Z,1003.11
2024-03-04T06:10:14.318Z,1003.11
2024-03-04T06:10:35.414Z,1003.11
2024-03-04T06:10:57.900Z,1003.11
2024-03-04T06:11:38.430Z,1003.11
2024-03-04T06:12:04.757Z,1003.22
2024-03-04T06:12:36.748Z,1003.22
2024-03-04T06:13:08.747Z,1003.11
2024-03-04T06:13:40.684Z,1003.11
2024-03-04T06:14:17.087Z,1003.22
2024-03-04T06:14:35.702Z,1003.01
2024-03-04T06:14:58.200Z,1003.01
2024-03-04T06:15:32.835Z,1003.01